sensor_id;sensor_type;location;lat;lon;timestamp;P1;durP1;ratioP1;P2;durP2;ratioP2
63016;SDS011;50274;45.640;11.756;2023-12-20T00:01:48;46.07;;;27.77;;
63016;SDS011;50274;45.640;11.756;2023-12-20T00:04:14;42.45;;;28.55;;
63016;SDS011;50274;45.640;11.756;2023-12-20T00:06:40;42.42;;;26.80;;
63016;SDS011;50274;45.640;11.756;2023-12-20T00:09:06;42.07;;;26.83;;
63016;SDS011;50274;45.640;11.756;2023-12-20T00:11:32;45.27;;;29.13;;
63016;SDS011;50274;45.640;11.756;2023-12-20T00:13:58;48.28;;;28.67;;
63016;SDS011;50274;45.640;11.756;2023-12-20T00:16:23;44.70;;;28.13;;
63016;SDS011;50274;45.640;11.756;2023-12-20T00:18:49;43.00;;;27.80;;
63016;SDS011;50274;45.640;11.756;2023-12-20T00:21:15;43.35;;;27.10;;
63016;SDS011;50274;45.640;11.756;2023-12-20T00:23:41;44.03;;;27.77;;
63016;SDS011;50274;45.640;11.756;2023-12-20T00:26:07;43.25;;;27.42;;
63016;SDS011;50274;45.640;11.756;2023-12-20T00:28:32;45.60;;;27.53;;
63016;SDS011;50274;45.640;11.756;2023-12-20T00:30:58;47.97;;;30.15;;
63016;SDS011;50274;45.640;11.756;2023-12-20T00:33:24;43.73;;;27.53;;
63016;SDS011;50274;45.640;11.756;2023-12-20T00:35:50;46.25;;;27.88;;
63016;SDS011;50274;45.640;11.756;2023-12-20T00:38:15;45.40;;;28.00;;
63016;SDS011;50274;45.640;11.756;2023-12-20T00:40:41;46.97;;;28.30;;
63016;SDS011;50274;45.640;11.756;2023-12-20T00:43:07;45.50;;;28.35;;
63016;SDS011;50274;45.640;11.756;2023-12-20T00:45:33;41.67;;;25.57;;
63016;SDS011;50274;45.640;11.756;2023-12-20T00:47:59;45.63;;;28.70;;
63016;SDS011;50274;45.640;11.756;2023-12-20T00:50:24;46.03;;;28.73;;
63016;SDS011;50274;45.640;11.756;2023-12-20T00:52:50;47.90;;;28.45;;
63016;SDS011;50274;45.640;11.756;2023-12-20T00:55:16;48.30;;;28.42;;
63016;SDS011;50274;45.640;11.756;2023-12-20T00:57:42;42.33;;;26.90;;
63016;SDS011;50274;45.640;11.756;2023-12-20T01:00:08;50.17;;;29.40;;
63016;SDS011;50274;45.640;11.756;2023-12-20T01:02:38;46.97;;;28.23;;
63016;SDS011;50274;45.640;11.756;2023-12-20T01:05:04;49.03;;;29.75;;
63016;SDS011;50274;45.640;11.756;2023-12-20T01:07:32;46.17;;;28.07;;
63016;SDS011;50274;45.640;11.756;2023-12-20T01:09:58;42.80;;;27.13;;
63016;SDS011;50274;45.640;11.756;2023-12-20T01:12:24;50.67;;;30.15;;
63016;SDS011;50274;45.640;11.756;2023-12-20T01:14:49;50.40;;;27.83;;
63016;SDS011;50274;45.640;11.756;2023-12-20T01:17:15;42.90;;;27.38;;
63016;SDS011;50274;45.640;11.756;2023-12-20T01:19:41;48.27;;;28.80;;
63016;SDS011;50274;45.640;11.756;2023-12-20T01:22:07;46.80;;;29.05;;
63016;SDS011;50274;45.640;11.756;2023-12-20T01:24:32;45.37;;;29.17;;
63016;SDS011;50274;45.640;11.756;2023-12-20T01:26:58;49.20;;;27.83;;
63016;SDS011;50274;45.640;11.756;2023-12-20T01:29:24;45.03;;;27.90;;
63016;SDS011;50274;45.640;11.756;2023-12-20T01:31:50;48.60;;;29.48;;
63016;SDS011;50274;45.640;11.756;2023-12-20T01:34:15;46.72;;;26.48;;
63016;SDS011;50274;45.640;11.756;2023-12-20T01:36:42;50.60;;;29.67;;
63016;SDS011;50274;45.640;11.756;2023-12-20T01:39:08;48.08;;;28.95;;
63016;SDS011;50274;45.640;11.756;2023-12-20T01:41:33;46.08;;;27.65;;
63016;SDS011;50274;45.640;11.756;2023-12-20T01:43:59;48.67;;;28.23;;
63016;SDS011;50274;45.640;11.756;2023-12-20T01:46:25;50.05;;;27.90;;
63016;SDS011;50274;45.640;11.756;2023-12-20T01:48:51;45.10;;;26.57;;
63016;SDS011;50274;45.640;11.756;2023-12-20T01:51:17;49.05;;;27.98;;
63016;SDS011;50274;45.640;11.756;2023-12-20T01:53:44;44.80;;;26.50;;
63016;SDS011;50274;45.640;11.756;2023-12-20T01:56:10;46.13;;;25.90;;
63016;SDS011;50274;45.640;11.756;2023-12-20T01:58:38;47.25;;;28.95;;
63016;SDS011;50274;45.640;11.756;2023-12-20T02:01:08;46.77;;;27.57;;
63016;SDS011;50274;45.640;11.756;2023-12-20T02:03:34;42.97;;;26.73;;
63016;SDS011;50274;45.640;11.756;2023-12-20T02:06:02;46.83;;;27.95;;
63016;SDS011;50274;45.640;11.756;2023-12-20T02:08:28;46.88;;;27.02;;
63016;SDS011;50274;45.640;11.756;2023-12-20T02:10:55;46.05;;;27.30;;
63016;SDS011;50274;45.640;11.756;2023-12-20T02:13:21;45.40;;;26.77;;
63016;SDS011;50274;45.640;11.756;2023-12-20T02:15:47;44.90;;;26.73;;
63016;SDS011;50274;45.640;11.756;2023-12-20T02:18:13;44.60;;;25.48;;
63016;SDS011;50274;45.640;11.756;2023-12-20T02:20:41;48.57;;;26.73;;
63016;SDS011;50274;45.640;11.756;2023-12-20T02:23:07;46.17;;;26.40;;
63016;SDS011;50274;45.640;11.756;2023-12-20T02:25:33;46.63;;;26.52;;
63016;SDS011;50274;45.640;11.756;2023-12-20T02:27:59;46.70;;;25.53;;
63016;SDS011;50274;45.640;11.756;2023-12-20T02:30:25;44.28;;;26.77;;
63016;SDS011;50274;45.640;11.756;2023-12-20T02:32:50;49.00;;;27.45;;
63016;SDS011;50274;45.640;11.756;2023-12-20T02:35:17;41.47;;;23.33;;
63016;SDS011;50274;45.640;11.756;2023-12-20T02:37:43;42.90;;;25.57;;
63016;SDS011;50274;45.640;11.756;2023-12-20T02:40:09;46.28;;;25.55;;
63016;SDS011;50274;45.640;11.756;2023-12-20T02:42:35;41.47;;;23.67;;
63016;SDS011;50274;45.640;11.756;2023-12-20T02:45:01;40.28;;;24.33;;
63016;SDS011;50274;45.640;11.756;2023-12-20T02:47:27;41.60;;;25.10;;
63016;SDS011;50274;45.640;11.756;2023-12-20T02:49:55;42.13;;;22.95;;
63016;SDS011;50274;45.640;11.756;2023-12-20T02:52:21;40.80;;;23.77;;
63016;SDS011;50274;45.640;11.756;2023-12-20T02:54:48;39.90;;;24.97;;
63016;SDS011;50274;45.640;11.756;2023-12-20T02:57:14;40.72;;;23.40;;
63016;SDS011;50274;45.640;11.756;2023-12-20T02:59:39;40.40;;;22.63;;
63016;SDS011;50274;45.640;11.756;2023-12-20T03:02:05;39.22;;;23.13;;
63016;SDS011;50274;45.640;11.756;2023-12-20T03:04:31;38.90;;;22.42;;
63016;SDS011;50274;45.640;11.756;2023-12-20T03:06:57;42.23;;;22.67;;
63016;SDS011;50274;45.640;11.756;2023-12-20T03:09:22;41.50;;;22.73;;
63016;SDS011;50274;45.640;11.756;2023-12-20T03:11:48;38.83;;;23.43;;
63016;SDS011;50274;45.640;11.756;2023-12-20T03:14:14;36.83;;;22.67;;
63016;SDS011;50274;45.640;11.756;2023-12-20T03:16:40;36.45;;;21.67;;
63016;SDS011;50274;45.640;11.756;2023-12-20T03:19:06;35.93;;;23.10;;
63016;SDS011;50274;45.640;11.756;2023-12-20T03:21:32;42.42;;;23.27;;
63016;SDS011;50274;45.640;11.756;2023-12-20T03:23:57;39.70;;;23.27;;
63016;SDS011;50274;45.640;11.756;2023-12-20T03:26:23;44.75;;;24.13;;
63016;SDS011;50274;45.640;11.756;2023-12-20T03:28:49;40.83;;;23.03;;
63016;SDS011;50274;45.640;11.756;2023-12-20T03:31:15;42.42;;;24.58;;
63016;SDS011;50274;45.640;11.756;2023-12-20T03:33:41;40.93;;;24.17;;
63016;SDS011;50274;45.640;11.756;2023-12-20T03:36:06;38.57;;;22.93;;
63016;SDS011;50274;45.640;11.756;2023-12-20T03:38:32;37.00;;;21.65;;
63016;SDS011;50274;45.640;11.756;2023-12-20T03:40:58;37.70;;;23.17;;
63016;SDS011;50274;45.640;11.756;2023-12-20T03:43:24;37.05;;;22.15;;
63016;SDS011;50274;45.640;11.756;2023-12-20T03:45:50;38.57;;;22.97;;
63016;SDS011;50274;45.640;11.756;2023-12-20T03:48:15;37.23;;;21.17;;
63016;SDS011;50274;45.640;11.756;2023-12-20T03:50:41;36.25;;;22.27;;
63016;SDS011;50274;45.640;11.756;2023-12-20T03:53:07;35.27;;;20.30;;
63016;SDS011;50274;45.640;11.756;2023-12-20T03:55:33;36.83;;;21.52;;
63016;SDS011;50274;45.640;11.756;2023-12-20T03:57:59;34.83;;;20.35;;
63016;SDS011;50274;45.640;11.756;2023-12-20T04:00:25;34.40;;;20.87;;
63016;SDS011;50274;45.640;11.756;2023-12-20T04:02:50;34.75;;;21.08;;
63016;SDS011;50274;45.640;11.756;2023-12-20T04:05:16;38.83;;;21.33;;
63016;SDS011;50274;45.640;11.756;2023-12-20T04:07:42;35.47;;;21.13;;
63016;SDS011;50274;45.640;11.756;2023-12-20T04:10:09;33.45;;;20.92;;
63016;SDS011;50274;45.640;11.756;2023-12-20T04:12:34;31.97;;;19.57;;
63016;SDS011;50274;45.640;11.756;2023-12-20T04:15:00;38.85;;;20.05;;
63016;SDS011;50274;45.640;11.756;2023-12-20T04:17:26;35.50;;;21.10;;
63016;SDS011;50274;45.640;11.756;2023-12-20T04:19:52;35.33;;;19.27;;
63016;SDS011;50274;45.640;11.756;2023-12-20T04:22:18;33.83;;;18.95;;
63016;SDS011;50274;45.640;11.756;2023-12-20T04:24:44;33.60;;;19.95;;
63016;SDS011;50274;45.640;11.756;2023-12-20T04:27:10;33.17;;;18.93;;
63016;SDS011;50274;45.640;11.756;2023-12-20T04:29:36;31.50;;;18.65;;
63016;SDS011;50274;45.640;11.756;2023-12-20T04:32:02;32.80;;;18.27;;
63016;SDS011;50274;45.640;11.756;2023-12-20T04:34:29;31.58;;;18.10;;
63016;SDS011;50274;45.640;11.756;2023-12-20T04:36:55;30.00;;;17.63;;
63016;SDS011;50274;45.640;11.756;2023-12-20T04:39:21;28.25;;;17.20;;
63016;SDS011;50274;45.640;11.756;2023-12-20T04:41:46;29.55;;;17.20;;
63016;SDS011;50274;45.640;11.756;2023-12-20T04:44:15;27.47;;;15.70;;
63016;SDS011;50274;45.640;11.756;2023-12-20T04:46:41;27.65;;;16.05;;
63016;SDS011;50274;45.640;11.756;2023-12-20T04:49:07;28.00;;;15.80;;
63016;SDS011;50274;45.640;11.756;2023-12-20T04:51:33;26.05;;;16.55;;
63016;SDS011;50274;45.640;11.756;2023-12-20T04:53:59;27.50;;;16.20;;
63016;SDS011;50274;45.640;11.756;2023-12-20T04:56:26;27.52;;;15.85;;
63016;SDS011;50274;45.640;11.756;2023-12-20T04:58:51;24.67;;;14.32;;
63016;SDS011;50274;45.640;11.756;2023-12-20T05:01:17;28.67;;;15.03;;
63016;SDS011;50274;45.640;11.756;2023-12-20T05:03:43;29.92;;;16.33;;
63016;SDS011;50274;45.640;11.756;2023-12-20T05:06:09;26.70;;;16.02;;
63016;SDS011;50274;45.640;11.756;2023-12-20T05:08:35;29.13;;;17.17;;
63016;SDS011;50274;45.640;11.756;2023-12-20T05:11:01;28.35;;;16.45;;
63016;SDS011;50274;45.640;11.756;2023-12-20T05:13:28;31.60;;;17.67;;
63016;SDS011;50274;45.640;11.756;2023-12-20T05:15:53;29.95;;;17.92;;
63016;SDS011;50274;45.640;11.756;2023-12-20T05:18:20;30.40;;;17.97;;
63016;SDS011;50274;45.640;11.756;2023-12-20T05:20:46;34.33;;;19.48;;
63016;SDS011;50274;45.640;11.756;2023-12-20T05:23:12;31.40;;;16.92;;
63016;SDS011;50274;45.640;11.756;2023-12-20T05:25:39;29.58;;;17.88;;
63016;SDS011;50274;45.640;11.756;2023-12-20T05:28:04;31.47;;;18.70;;
63016;SDS011;50274;45.640;11.756;2023-12-20T05:30:30;28.30;;;16.95;;
63016;SDS011;50274;45.640;11.756;2023-12-20T05:32:56;27.95;;;16.95;;
63016;SDS011;50274;45.640;11.756;2023-12-20T05:35:22;25.97;;;16.10;;
63016;SDS011;50274;45.640;11.756;2023-12-20T05:37:48;26.90;;;16.35;;
63016;SDS011;50274;45.640;11.756;2023-12-20T05:40:14;22.85;;;13.73;;
63016;SDS011;50274;45.640;11.756;2023-12-20T05:42:40;28.55;;;16.17;;
63016;SDS011;50274;45.640;11.756;2023-12-20T05:45:06;25.00;;;15.37;;
63016;SDS011;50274;45.640;11.756;2023-12-20T05:47:34;27.88;;;16.23;;
63016;SDS011;50274;45.640;11.756;2023-12-20T05:50:00;25.65;;;14.60;;
63016;SDS011;50274;45.640;11.756;2023-12-20T05:52:26;25.53;;;14.93;;
63016;SDS011;50274;45.640;11.756;2023-12-20T05:54:51;23.63;;;14.55;;
63016;SDS011;50274;45.640;11.756;2023-12-20T05:57:17;23.92;;;13.25;;
63016;SDS011;50274;45.640;11.756;2023-12-20T05:59:43;22.10;;;13.97;;
63016;SDS011;50274;45.640;11.756;2023-12-20T06:02:09;28.83;;;16.23;;
63016;SDS011;50274;45.640;11.756;2023-12-20T06:04:34;22.90;;;13.80;;
63016;SDS011;50274;45.640;11.756;2023-12-20T06:07:00;21.23;;;12.32;;
63016;SDS011;50274;45.640;11.756;2023-12-20T06:09:28;22.05;;;13.50;;
63016;SDS011;50274;45.640;11.756;2023-12-20T06:11:54;22.83;;;12.93;;
63016;SDS011;50274;45.640;11.756;2023-12-20T06:14:19;23.70;;;13.53;;
63016;SDS011;50274;45.640;11.756;2023-12-20T06:16:45;24.55;;;13.35;;
63016;SDS011;50274;45.640;11.756;2023-12-20T06:19:11;24.63;;;12.73;;
63016;SDS011;50274;45.640;11.756;2023-12-20T06:21:37;22.15;;;12.65;;
63016;SDS011;50274;45.640;11.756;2023-12-20T06:24:03;19.67;;;12.15;;
63016;SDS011;50274;45.640;11.756;2023-12-20T06:26:29;20.13;;;12.35;;
63016;SDS011;50274;45.640;11.756;2023-12-20T06:28:55;22.33;;;11.97;;
63016;SDS011;50274;45.640;11.756;2023-12-20T06:31:21;17.63;;;11.38;;
63016;SDS011;50274;45.640;11.756;2023-12-20T06:33:46;21.97;;;12.23;;
63016;SDS011;50274;45.640;11.756;2023-12-20T06:36:14;24.45;;;13.13;;
63016;SDS011;50274;45.640;11.756;2023-12-20T06:38:40;26.65;;;14.35;;
63016;SDS011;50274;45.640;11.756;2023-12-20T06:41:07;25.80;;;13.43;;
63016;SDS011;50274;45.640;11.756;2023-12-20T06:43:33;34.63;;;16.80;;
63016;SDS011;50274;45.640;11.756;2023-12-20T06:46:00;30.48;;;14.75;;
63016;SDS011;50274;45.640;11.756;2023-12-20T06:48:25;35.58;;;19.05;;
63016;SDS011;50274;45.640;11.756;2023-12-20T06:50:51;31.40;;;18.20;;
63016;SDS011;50274;45.640;11.756;2023-12-20T06:53:17;28.60;;;16.73;;
63016;SDS011;50274;45.640;11.756;2023-12-20T06:55:43;31.10;;;17.00;;
63016;SDS011;50274;45.640;11.756;2023-12-20T06:58:09;26.87;;;15.97;;
63016;SDS011;50274;45.640;11.756;2023-12-20T07:00:35;29.70;;;16.48;;
63016;SDS011;50274;45.640;11.756;2023-12-20T07:03:01;30.83;;;15.65;;
63016;SDS011;50274;45.640;11.756;2023-12-20T07:05:26;35.20;;;17.77;;
63016;SDS011;50274;45.640;11.756;2023-12-20T07:07:52;32.15;;;16.38;;
63016;SDS011;50274;45.640;11.756;2023-12-20T07:10:18;28.60;;;16.05;;
63016;SDS011;50274;45.640;11.756;2023-12-20T07:12:44;31.40;;;16.85;;
63016;SDS011;50274;45.640;11.756;2023-12-20T07:15:10;34.63;;;17.10;;
63016;SDS011;50274;45.640;11.756;2023-12-20T07:17:36;32.42;;;17.25;;
63016;SDS011;50274;45.640;11.756;2023-12-20T07:20:02;31.55;;;16.85;;
63016;SDS011;50274;45.640;11.756;2023-12-20T07:22:30;29.48;;;16.23;;
63016;SDS011;50274;45.640;11.756;2023-12-20T07:24:58;36.77;;;18.70;;
63016;SDS011;50274;45.640;11.756;2023-12-20T07:27:24;32.38;;;17.35;;
63016;SDS011;50274;45.640;11.756;2023-12-20T07:29:50;31.52;;;18.10;;
63016;SDS011;50274;45.640;11.756;2023-12-20T07:32:17;28.13;;;16.52;;
63016;SDS011;50274;45.640;11.756;2023-12-20T07:34:43;30.07;;;17.93;;
63016;SDS011;50274;45.640;11.756;2023-12-20T07:37:09;33.13;;;17.80;;
63016;SDS011;50274;45.640;11.756;2023-12-20T07:39:37;34.58;;;18.80;;
63016;SDS011;50274;45.640;11.756;2023-12-20T07:42:05;33.95;;;19.10;;
63016;SDS011;50274;45.640;11.756;2023-12-20T07:44:31;30.38;;;17.50;;
63016;SDS011;50274;45.640;11.756;2023-12-20T07:46:57;31.33;;;18.57;;
63016;SDS011;50274;45.640;11.756;2023-12-20T07:49:23;27.08;;;16.60;;
63016;SDS011;50274;45.640;11.756;2023-12-20T07:51:49;27.38;;;15.57;;
63016;SDS011;50274;45.640;11.756;2023-12-20T07:54:15;28.13;;;15.30;;
63016;SDS011;50274;45.640;11.756;2023-12-20T07:56:41;26.27;;;15.07;;
63016;SDS011;50274;45.640;11.756;2023-12-20T07:59:07;25.45;;;15.43;;
63016;SDS011;50274;45.640;11.756;2023-12-20T08:01:33;23.42;;;14.23;;
63016;SDS011;50274;45.640;11.756;2023-12-20T08:03:59;24.37;;;14.33;;
63016;SDS011;50274;45.640;11.756;2023-12-20T08:06:24;22.98;;;14.55;;
63016;SDS011;50274;45.640;11.756;2023-12-20T08:08:50;27.60;;;14.33;;
63016;SDS011;50274;45.640;11.756;2023-12-20T08:11:16;30.65;;;15.95;;
63016;SDS011;50274;45.640;11.756;2023-12-20T08:13:42;28.55;;;16.88;;
63016;SDS011;50274;45.640;11.756;2023-12-20T08:16:08;31.30;;;17.83;;
63016;SDS011;50274;45.640;11.756;2023-12-20T08:18:34;29.63;;;17.43;;
63016;SDS011;50274;45.640;11.756;2023-12-20T08:21:00;30.10;;;16.58;;
63016;SDS011;50274;45.640;11.756;2023-12-20T08:23:27;34.88;;;18.33;;
63016;SDS011;50274;45.640;11.756;2023-12-20T08:25:53;32.20;;;18.45;;
63016;SDS011;50274;45.640;11.756;2023-12-20T08:28:18;31.63;;;18.97;;
63016;SDS011;50274;45.640;11.756;2023-12-20T08:30:44;38.13;;;20.75;;
63016;SDS011;50274;45.640;11.756;2023-12-20T08:33:10;33.00;;;19.00;;
63016;SDS011;50274;45.640;11.756;2023-12-20T08:35:38;33.67;;;19.80;;
63016;SDS011;50274;45.640;11.756;2023-12-20T08:38:05;30.05;;;17.70;;
63016;SDS011;50274;45.640;11.756;2023-12-20T08:40:31;33.38;;;19.55;;
63016;SDS011;50274;45.640;11.756;2023-12-20T08:42:57;34.95;;;19.80;;
63016;SDS011;50274;45.640;11.756;2023-12-20T08:45:23;37.43;;;21.30;;
63016;SDS011;50274;45.640;11.756;2023-12-20T08:47:49;33.58;;;20.60;;
63016;SDS011;50274;45.640;11.756;2023-12-20T08:50:15;35.03;;;20.85;;
63016;SDS011;50274;45.640;11.756;2023-12-20T08:52:41;38.70;;;22.02;;
63016;SDS011;50274;45.640;11.756;2023-12-20T08:55:07;50.67;;;23.20;;
63016;SDS011;50274;45.640;11.756;2023-12-20T08:57:34;80.40;;;32.45;;
63016;SDS011;50274;45.640;11.756;2023-12-20T09:00:00;169.77;;;55.30;;
63016;SDS011;50274;45.640;11.756;2023-12-20T09:02:26;159.80;;;57.10;;
63016;SDS011;50274;45.640;11.756;2023-12-20T09:04:52;269.05;;;82.60;;
63016;SDS011;50274;45.640;11.756;2023-12-20T09:07:25;262.20;;;83.45;;
63016;SDS011;50274;45.640;11.756;2023-12-20T09:09:51;135.27;;;51.70;;
63016;SDS011;50274;45.640;11.756;2023-12-20T09:12:18;107.97;;;44.47;;
63016;SDS011;50274;45.640;11.756;2023-12-20T09:14:48;102.50;;;40.95;;
63016;SDS011;50274;45.640;11.756;2023-12-20T09:17:15;82.30;;;35.15;;
63016;SDS011;50274;45.640;11.756;2023-12-20T09:19:42;65.25;;;30.67;;
63016;SDS011;50274;45.640;11.756;2023-12-20T09:22:11;54.40;;;28.27;;
63016;SDS011;50274;45.640;11.756;2023-12-20T09:24:37;57.08;;;26.67;;
63016;SDS011;50274;45.640;11.756;2023-12-20T09:27:06;47.28;;;24.25;;
63016;SDS011;50274;45.640;11.756;2023-12-20T09:29:32;41.03;;;20.85;;
63016;SDS011;50274;45.640;11.756;2023-12-20T09:31:58;32.93;;;19.30;;
63016;SDS011;50274;45.640;11.756;2023-12-20T09:34:24;30.98;;;17.75;;
63016;SDS011;50274;45.640;11.756;2023-12-20T09:36:51;29.00;;;16.38;;
63016;SDS011;50274;45.640;11.756;2023-12-20T09:39:17;28.67;;;16.40;;
63016;SDS011;50274;45.640;11.756;2023-12-20T09:41:45;27.37;;;16.47;;
63016;SDS011;50274;45.640;11.756;2023-12-20T09:44:17;27.73;;;16.65;;
63016;SDS011;50274;45.640;11.756;2023-12-20T09:46:44;26.13;;;16.13;;
63016;SDS011;50274;45.640;11.756;2023-12-20T09:49:13;27.13;;;16.23;;
63016;SDS011;50274;45.640;11.756;2023-12-20T09:51:41;25.33;;;16.15;;
63016;SDS011;50274;45.640;11.756;2023-12-20T09:54:07;27.10;;;15.23;;
63016;SDS011;50274;45.640;11.756;2023-12-20T09:56:34;26.83;;;15.70;;
63016;SDS011;50274;45.640;11.756;2023-12-20T09:59:00;28.15;;;16.08;;
63016;SDS011;50274;45.640;11.756;2023-12-20T10:01:27;25.52;;;15.48;;
63016;SDS011;50274;45.640;11.756;2023-12-20T10:03:55;32.33;;;17.38;;
63016;SDS011;50274;45.640;11.756;2023-12-20T10:06:23;32.53;;;15.77;;
63016;SDS011;50274;45.640;11.756;2023-12-20T10:08:49;29.15;;;15.93;;
63016;SDS011;50274;45.640;11.756;2023-12-20T10:11:15;42.25;;;18.23;;
63016;SDS011;50274;45.640;11.756;2023-12-20T10:13:42;38.40;;;19.00;;
63016;SDS011;50274;45.640;11.756;2023-12-20T10:16:08;39.80;;;18.67;;
63016;SDS011;50274;45.640;11.756;2023-12-20T10:18:34;42.92;;;19.10;;
63016;SDS011;50274;45.640;11.756;2023-12-20T10:21:01;39.22;;;18.33;;
63016;SDS011;50274;45.640;11.756;2023-12-20T10:23:28;41.53;;;20.00;;
63016;SDS011;50274;45.640;11.756;2023-12-20T10:25:58;44.77;;;18.83;;
63016;SDS011;50274;45.640;11.756;2023-12-20T10:28:25;39.53;;;18.98;;
63016;SDS011;50274;45.640;11.756;2023-12-20T10:30:54;36.55;;;18.48;;
63016;SDS011;50274;45.640;11.756;2023-12-20T10:33:26;35.50;;;17.55;;
63016;SDS011;50274;45.640;11.756;2023-12-20T10:35:57;29.45;;;16.17;;
63016;SDS011;50274;45.640;11.756;2023-12-20T10:38:23;25.23;;;15.70;;
63016;SDS011;50274;45.640;11.756;2023-12-20T10:40:49;28.15;;;17.13;;
63016;SDS011;50274;45.640;11.756;2023-12-20T10:43:23;24.05;;;13.65;;
63016;SDS011;50274;45.640;11.756;2023-12-20T10:45:58;25.23;;;15.00;;
63016;SDS011;50274;45.640;11.756;2023-12-20T10:48:24;23.05;;;13.80;;
63016;SDS011;50274;45.640;11.756;2023-12-20T10:50:55;22.02;;;13.35;;
63016;SDS011;50274;45.640;11.756;2023-12-20T10:53:22;21.75;;;12.38;;
63016;SDS011;50274;45.640;11.756;2023-12-20T10:55:52;23.67;;;13.35;;
63016;SDS011;50274;45.640;11.756;2023-12-20T10:58:20;24.10;;;13.53;;
63016;SDS011;50274;45.640;11.756;2023-12-20T11:00:47;21.52;;;12.52;;
63016;SDS011;50274;45.640;11.756;2023-12-20T11:03:25;26.50;;;14.48;;
63016;SDS011;50274;45.640;11.756;2023-12-20T11:05:59;25.10;;;13.70;;
63016;SDS011;50274;45.640;11.756;2023-12-20T11:08:40;22.13;;;13.55;;
63016;SDS011;50274;45.640;11.756;2023-12-20T11:13:58;26.30;;;15.23;;
63016;SDS011;50274;45.640;11.756;2023-12-20T11:16:28;26.80;;;15.52;;
63016;SDS011;50274;45.640;11.756;2023-12-20T11:18:56;26.92;;;16.08;;
63016;SDS011;50274;45.640;11.756;2023-12-20T11:21:22;24.63;;;15.67;;
63016;SDS011;50274;45.640;11.756;2023-12-20T11:23:48;26.05;;;16.10;;
63016;SDS011;50274;45.640;11.756;2023-12-20T11:26:22;26.15;;;16.17;;
63016;SDS011;50274;45.640;11.756;2023-12-20T11:28:53;26.25;;;16.15;;
63016;SDS011;50274;45.640;11.756;2023-12-20T11:31:19;27.87;;;16.60;;
63016;SDS011;50274;45.640;11.756;2023-12-20T11:33:45;24.95;;;16.17;;
63016;SDS011;50274;45.640;11.756;2023-12-20T11:36:14;27.23;;;16.58;;
63016;SDS011;50274;45.640;11.756;2023-12-20T11:38:56;28.20;;;16.27;;
63016;SDS011;50274;45.640;11.756;2023-12-20T11:41:23;29.73;;;16.47;;
63016;SDS011;50274;45.640;11.756;2023-12-20T11:43:49;27.38;;;16.10;;
63016;SDS011;50274;45.640;11.756;2023-12-20T11:46:19;24.75;;;15.88;;
63016;SDS011;50274;45.640;11.756;2023-12-20T11:48:45;23.75;;;14.82;;
63016;SDS011;50274;45.640;11.756;2023-12-20T11:51:12;24.73;;;14.73;;
63016;SDS011;50274;45.640;11.756;2023-12-20T11:53:42;25.40;;;14.17;;
63016;SDS011;50274;45.640;11.756;2023-12-20T11:56:08;26.88;;;14.95;;
63016;SDS011;50274;45.640;11.756;2023-12-20T11:58:35;46.13;;;22.40;;
63016;SDS011;50274;45.640;11.756;2023-12-20T12:01:01;41.30;;;20.40;;
63016;SDS011;50274;45.640;11.756;2023-12-20T12:03:32;39.90;;;20.80;;
63016;SDS011;50274;45.640;11.756;2023-12-20T12:05:58;36.17;;;20.70;;
63016;SDS011;50274;45.640;11.756;2023-12-20T12:08:24;37.92;;;22.48;;
63016;SDS011;50274;45.640;11.756;2023-12-20T12:10:50;37.78;;;21.73;;
63016;SDS011;50274;45.640;11.756;2023-12-20T12:13:16;36.40;;;22.07;;
63016;SDS011;50274;45.640;11.756;2023-12-20T12:15:42;35.67;;;21.02;;
63016;SDS011;50274;45.640;11.756;2023-12-20T12:18:08;32.78;;;20.02;;
63016;SDS011;50274;45.640;11.756;2023-12-20T12:20:35;36.67;;;21.27;;
63016;SDS011;50274;45.640;11.756;2023-12-20T12:23:01;33.28;;;20.08;;
63016;SDS011;50274;45.640;11.756;2023-12-20T12:25:29;40.50;;;20.73;;
63016;SDS011;50274;45.640;11.756;2023-12-20T12:27:56;35.92;;;21.75;;
63016;SDS011;50274;45.640;11.756;2023-12-20T12:30:23;37.60;;;21.00;;
63016;SDS011;50274;45.640;11.756;2023-12-20T12:32:50;37.33;;;21.05;;
63016;SDS011;50274;45.640;11.756;2023-12-20T12:35:17;44.75;;;23.67;;
63016;SDS011;50274;45.640;11.756;2023-12-20T12:37:44;51.67;;;26.77;;
63016;SDS011;50274;45.640;11.756;2023-12-20T12:40:11;52.00;;;26.23;;
63016;SDS011;50274;45.640;11.756;2023-12-20T12:42:38;49.03;;;26.47;;
63016;SDS011;50274;45.640;11.756;2023-12-20T12:45:06;40.97;;;23.08;;
63016;SDS011;50274;45.640;11.756;2023-12-20T12:47:33;36.10;;;22.48;;
63016;SDS011;50274;45.640;11.756;2023-12-20T12:49:59;38.20;;;22.23;;
63016;SDS011;50274;45.640;11.756;2023-12-20T12:52:25;34.90;;;21.53;;
63016;SDS011;50274;45.640;11.756;2023-12-20T12:54:52;37.37;;;21.93;;
63016;SDS011;50274;45.640;11.756;2023-12-20T12:57:18;34.47;;;20.80;;
63016;SDS011;50274;45.640;11.756;2023-12-20T12:59:44;32.03;;;20.02;;
63016;SDS011;50274;45.640;11.756;2023-12-20T13:02:14;35.35;;;20.75;;
63016;SDS011;50274;45.640;11.756;2023-12-20T13:04:40;32.97;;;19.85;;
63016;SDS011;50274;45.640;11.756;2023-12-20T13:07:07;33.37;;;18.67;;
63016;SDS011;50274;45.640;11.756;2023-12-20T13:09:35;29.13;;;18.05;;
63016;SDS011;50274;45.640;11.756;2023-12-20T13:12:01;30.02;;;17.67;;
63016;SDS011;50274;45.640;11.756;2023-12-20T13:14:29;27.00;;;17.40;;
63016;SDS011;50274;45.640;11.756;2023-12-20T13:16:58;29.42;;;18.23;;
63016;SDS011;50274;45.640;11.756;2023-12-20T13:19:24;27.73;;;17.37;;
63016;SDS011;50274;45.640;11.756;2023-12-20T13:21:50;29.17;;;17.20;;
63016;SDS011;50274;45.640;11.756;2023-12-20T13:24:16;31.63;;;18.65;;
63016;SDS011;50274;45.640;11.756;2023-12-20T13:26:42;29.60;;;19.10;;
63016;SDS011;50274;45.640;11.756;2023-12-20T13:29:08;33.40;;;18.98;;
63016;SDS011;50274;45.640;11.756;2023-12-20T13:31:34;37.35;;;22.67;;
63016;SDS011;50274;45.640;11.756;2023-12-20T13:34:01;30.97;;;18.33;;
63016;SDS011;50274;45.640;11.756;2023-12-20T13:36:27;38.42;;;22.05;;
63016;SDS011;50274;45.640;11.756;2023-12-20T13:38:53;28.42;;;18.02;;
63016;SDS011;50274;45.640;11.756;2023-12-20T13:41:19;30.40;;;18.95;;
63016;SDS011;50274;45.640;11.756;2023-12-20T13:43:45;37.37;;;23.20;;
63016;SDS011;50274;45.640;11.756;2023-12-20T13:46:11;38.15;;;23.92;;
63016;SDS011;50274;45.640;11.756;2023-12-20T13:48:39;38.03;;;22.83;;
63016;SDS011;50274;45.640;11.756;2023-12-20T13:51:05;37.88;;;22.45;;
63016;SDS011;50274;45.640;11.756;2023-12-20T13:53:31;34.17;;;21.63;;
63016;SDS011;50274;45.640;11.756;2023-12-20T13:55:57;31.30;;;20.83;;
63016;SDS011;50274;45.640;11.756;2023-12-20T13:58:25;30.40;;;18.27;;
63016;SDS011;50274;45.640;11.756;2023-12-20T14:00:51;28.52;;;16.75;;
63016;SDS011;50274;45.640;11.756;2023-12-20T14:03:16;25.87;;;14.77;;
63016;SDS011;50274;45.640;11.756;2023-12-20T14:05:42;24.58;;;15.45;;
63016;SDS011;50274;45.640;11.756;2023-12-20T14:08:08;23.38;;;13.85;;